TAF Text Data
IDs:
Format:
Raw Decoded Include METAR

Data at: 2124 UTC 17 Nov 2018

KOSH 172053Z 36007KT 10SM OVC038 M01/M09 A3034 RMK AO2 SLP290 T10111094 55001


KATW 172045Z 32008KT 10SM BKN037 M02/M12 A3033

KATW 171736Z 1718/1818 34007KT P6SM SCT030 BKN035
  FM180100 32006KT P6SM SCT200
  FM180600 29005KT P6SM SKC
  FM181000 26007KT P6SM SKC